createdAt,value
2023-10-29T00:01:29.790Z,12.60
2023-10-29T00:04:15.508Z,12.60
2023-10-29T00:07:00.849Z,12.60
2023-10-29T00:09:46.319Z,12.70
2023-10-29T00:12:31.828Z,12.70
2023-10-29T00:15:17.670Z,12.60
2023-10-29T00:18:03.139Z,12.70
2023-10-29T00:20:48.455Z,12.70
2023-10-29T00:23:34.551Z,12.60
2023-10-29T00:26:19.994Z,12.60
2023-10-29T00:29:05.421Z,12.70
2023-10-29T00:31:50.899Z,12.70
2023-10-29T00:34:36.516Z,12.70
2023-10-29T00:37:22.020Z,12.70
2023-10-29T00:40:08.314Z,12.70
2023-10-29T00:42:53.420Z,12.70
2023-10-29T00:45:39.269Z,12.60
2023-10-29T00:48:25.957Z,12.50
2023-10-29T00:51:12.024Z,12.60
2023-10-29T00:53:57.739Z,12.60
2023-10-29T00:56:43.275Z,12.60
2023-10-29T00:59:31.746Z,12.60
2023-10-29T01:02:16.956Z,12.50
2023-10-29T01:05:06.204Z,12.60
2023-10-29T01:07:51.422Z,12.60
2023-10-29T01:10:37.093Z,12.50
2023-10-29T01:13:22.432Z,12.60
2023-10-29T01:16:08.230Z,12.50
2023-10-29T01:18:53.431Z,12.50
2023-10-29T01:21:39.225Z,12.60
2023-10-29T01:24:25.392Z,12.50
2023-10-29T01:27:11.292Z,12.50
2023-10-29T01:29:56.770Z,12.50
2023-10-29T01:32:42.462Z,12.50
2023-10-29T01:35:28.336Z,12.60
2023-10-29T01:38:13.964Z,12.60
2023-10-29T01:40:59.762Z,12.60
2023-10-29T01:43:45.095Z,12.60
2023-10-29T01:46:30.299Z,12.60
2023-10-29T01:49:15.695Z,12.50
2023-10-29T01:52:01.132Z,12.50
2023-10-29T01:54:46.768Z,12.50
2023-10-29T01:57:33.747Z,12.60
2023-10-29T02:00:20.306Z,12.60
2023-10-29T02:03:05.510Z,12.50
2023-10-29T02:05:50.931Z,12.60
2023-10-29T02:08:36.239Z,12.60
2023-10-29T02:11:21.725Z,12.60
2023-10-29T02:14:07.959Z,12.60
2023-10-29T02:16:53.176Z,12.60
2023-10-29T02:19:39.620Z,12.60
2023-10-29T02:22:25.966Z,12.70
2023-10-29T02:25:11.169Z,12.50
2023-10-29T02:27:56.686Z,12.50
2023-10-29T02:30:42.091Z,12.50
2023-10-29T02:33:27.757Z,12.50
2023-10-29T02:36:14.019Z,12.50
2023-10-29T02:38:59.421Z,12.50
2023-10-29T02:41:45.022Z,12.50
2023-10-29T02:44:30.318Z,12.50
2023-10-29T02:47:15.908Z,12.50
2023-10-29T02:50:01.268Z,12.50
2023-10-29T02:52:46.569Z,12.40
2023-10-29T02:55:32.544Z,12.40
2023-10-29T02:58:17.959Z,12.40
2023-10-29T03:01:08.349Z,12.40
2023-10-29T03:03:53.735Z,12.40
2023-10-29T03:06:40.513Z,12.30
2023-10-29T03:09:25.689Z,12.20
2023-10-29T03:12:11.262Z,12.30
2023-10-29T03:14:56.689Z,12.30
2023-10-29T03:17:42.258Z,12.20
2023-10-29T03:20:27.629Z,12.10
2023-10-29T03:23:13.299Z,12.00
2023-10-29T03:26:03.476Z,12.00
2023-10-29T03:28:49.422Z,11.90
2023-10-29T03:31:35.727Z,11.90
2023-10-29T03:34:20.897Z,11.80
2023-10-29T03:37:06.352Z,11.80
2023-10-29T03:39:51.804Z,11.70
2023-10-29T03:42:37.322Z,11.60
2023-10-29T03:45:23.028Z,11.60
2023-10-29T03:48:08.493Z,11.70
2023-10-29T03:50:54.017Z,11.70
2023-10-29T03:53:39.805Z,11.70
2023-10-29T03:56:25.350Z,11.70
2023-10-29T03:59:10.867Z,11.80
2023-10-29T04:01:56.296Z,11.90
2023-10-29T04:04:43.935Z,11.90
2023-10-29T04:07:31.161Z,12.00
2023-10-29T04:10:16.732Z,12.10
2023-10-29T04:13:02.330Z,12.10
2023-10-29T04:15:47.834Z,12.10
2023-10-29T04:18:34.836Z,12.10
2023-10-29T04:21:20.472Z,12.10
2023-10-29T04:24:06.415Z,12.20
2023-10-29T04:26:52.223Z,12.20
2023-10-29T04:29:37.637Z,12.20
2023-10-29T04:32:23.236Z,12.20
2023-10-29T04:35:08.842Z,12.20
2023-10-29T04:37:54.270Z,12.20
2023-10-29T04:40:39.676Z,12.10
2023-10-29T04:43:25.255Z,12.10
2023-10-29T04:46:12.085Z,12.00
2023-10-29T04:48:57.220Z,11.90
2023-10-29T04:51:42.758Z,11.70
2023-10-29T04:54:28.114Z,11.60
2023-10-29T04:57:13.489Z,11.50
2023-10-29T04:59:58.951Z,11.60
2023-10-29T05:02:44.421Z,11.60
2023-10-29T05:05:31.848Z,11.60
2023-10-29T05:08:17.345Z,11.60
2023-10-29T05:11:02.930Z,11.60
2023-10-29T05:13:48.584Z,11.50
2023-10-29T05:16:33.941Z,11.60
2023-10-29T05:19:19.642Z,11.60
2023-10-29T05:22:05.207Z,11.60
2023-10-29T05:24:50.741Z,11.50
2023-10-29T05:27:37.386Z,11.50
2023-10-29T05:30:23.023Z,11.30
2023-10-29T05:33:09.134Z,11.30
2023-10-29T05:35:55.247Z,11.30
2023-10-29T05:38:40.776Z,11.20
2023-10-29T05:41:26.452Z,11.20
2023-10-29T05:44:11.770Z,11.20
2023-10-29T05:46:57.203Z,11.20
2023-10-29T05:49:42.694Z,11.20
2023-10-29T05:52:28.161Z,11.20
2023-10-29T05:55:13.613Z,11.10
2023-10-29T05:57:59.375Z,11.20
2023-10-29T06:00:45.020Z,11.20
2023-10-29T06:03:31.330Z,11.10
2023-10-29T06:06:16.726Z,11.00
2023-10-29T06:09:09.913Z,11.00
2023-10-29T06:12:02.631Z,11.00
2023-10-29T06:14:48.824Z,11.10
2023-10-29T06:17:34.811Z,11.00
2023-10-29T06:20:22.115Z,11.10
2023-10-29T06:23:07.463Z,10.90
2023-10-29T06:25:52.937Z,11.10
2023-10-29T06:28:38.575Z,10.90
2023-10-29T06:31:34.301Z,10.90
2023-10-29T06:34:19.637Z,10.90
2023-10-29T06:37:05.160Z,10.90
2023-10-29T06:39:50.638Z,11.00
2023-10-29T06:42:37.161Z,11.10
2023-10-29T06:45:22.770Z,11.20
2023-10-29T06:48:07.978Z,11.20
2023-10-29T06:50:53.615Z,11.20
2023-10-29T06:53:40.063Z,11.30
2023-10-29T06:56:25.481Z,11.20
2023-10-29T06:59:11.491Z,11.10
2023-10-29T07:02:01.225Z,11.20
2023-10-29T07:04:48.465Z,11.10
2023-10-29T07:07:36.830Z,11.10
2023-10-29T07:10:22.615Z,11.10
2023-10-29T07:13:08.095Z,11.20
2023-10-29T07:15:54.247Z,11.20
2023-10-29T07:18:39.621Z,11.30
2023-10-29T07:21:25.116Z,11.30
2023-10-29T07:24:10.578Z,11.40
2023-10-29T07:26:56.240Z,11.40
2023-10-29T07:29:41.651Z,11.50
2023-10-29T07:32:27.350Z,11.60
2023-10-29T07:35:12.573Z,11.60
2023-10-29T07:37:57.910Z,11.50
2023-10-29T07:40:43.466Z,11.60
2023-10-29T07:43:28.920Z,11.50
2023-10-29T07:46:14.975Z,11.60
2023-10-29T07:49:00.391Z,11.60
2023-10-29T07:51:45.818Z,11.70
2023-10-29T07:54:31.314Z,11.90
2023-10-29T07:57:16.857Z,11.90
2023-10-29T08:00:02.452Z,11.70
2023-10-29T08:02:48.191Z,11.70
2023-10-29T08:05:33.296Z,11.70
2023-10-29T08:08:19.081Z,11.70
2023-10-29T08:11:04.501Z,11.90
2023-10-29T08:13:51.404Z,12.00
2023-10-29T08:16:36.964Z,12.00
2023-10-29T08:19:22.106Z,12.00
2023-10-29T08:22:07.756Z,11.90
2023-10-29T08:24:53.553Z,11.80
2023-10-29T08:27:38.815Z,11.80
2023-10-29T08:30:24.258Z,11.80
2023-10-29T08:33:10.339Z,11.80
2023-10-29T08:35:56.142Z,11.90
2023-10-29T08:38:41.475Z,12.10
2023-10-29T08:41:26.954Z,12.20
2023-10-29T08:44:12.626Z,12.30
2023-10-29T08:46:58.944Z,12.20
2023-10-29T08:49:44.122Z,12.20
2023-10-29T08:52:29.681Z,12.30
2023-10-29T08:55:16.169Z,12.20
2023-10-29T08:58:01.390Z,12.20
2023-10-29T09:00:47.258Z,12.40
2023-10-29T09:03:32.917Z,12.40
2023-10-29T09:06:18.546Z,12.50
2023-10-29T09:09:04.109Z,12.40
2023-10-29T09:11:54.617Z,12.50
2023-10-29T09:14:40.653Z,12.50
2023-10-29T09:17:25.982Z,12.40
2023-10-29T09:20:13.329Z,12.50
2023-10-29T09:22:58.484Z,12.40
2023-10-29T09:25:45.584Z,12.50
2023-10-29T09:28:30.995Z,12.60
2023-10-29T09:31:19.447Z,12.50
2023-10-29T09:34:05.778Z,12.70
2023-10-29T09:36:51.110Z,12.80
2023-10-29T09:39:37.230Z,12.90
2023-10-29T09:42:30.006Z,13.10
2023-10-29T09:45:18.342Z,13.50
2023-10-29T09:48:06.790Z,13.70
2023-10-29T09:50:54.530Z,13.80
2023-10-29T09:53:40.830Z,13.90
2023-10-29T09:56:27.932Z,13.90
2023-10-29T09:59:13.467Z,14.00
2023-10-29T10:01:59.242Z,14.10
2023-10-29T10:04:46.486Z,14.20
2023-10-29T10:07:32.614Z,14.20
2023-10-29T10:10:20.471Z,14.20
2023-10-29T10:13:06.496Z,14.40
2023-10-29T10:16:07.008Z,14.20
2023-10-29T10:18:58.256Z,14.30
2023-10-29T10:21:44.856Z,14.30
2023-10-29T10:24:49.268Z,14.40
2023-10-29T10:27:54.947Z,14.40
2023-10-29T10:30:40.371Z,14.50
2023-10-29T10:33:26.451Z,14.70
2023-10-29T10:36:11.995Z,14.80
2023-10-29T10:38:57.353Z,14.90
2023-10-29T10:41:47.296Z,14.90
2023-10-29T10:44:32.610Z,15.00
2023-10-29T10:47:20.442Z,14.90
2023-10-29T10:50:06.531Z,15.00
2023-10-29T10:52:53.256Z,15.10
2023-10-29T10:55:58.999Z,15.10
2023-10-29T10:58:46.942Z,15.10
2023-10-29T11:01:37.174Z,15.20
2023-10-29T11:04:27.713Z,15.10
2023-10-29T11:07:13.746Z,15.20
2023-10-29T11:10:00.403Z,15.20
2023-10-29T11:12:47.214Z,15.20
2023-10-29T11:15:47.997Z,15.20
2023-10-29T11:18:34.382Z,15.00
2023-10-29T11:21:34.053Z,15.20
2023-10-29T11:24:23.496Z,15.10
2023-10-29T11:27:56.892Z,15.20
2023-10-29T11:30:42.655Z,15.20
2023-10-29T11:33:28.982Z,15.40
2023-10-29T11:36:34.209Z,15.40
2023-10-29T11:39:38.764Z,15.40
2023-10-29T11:42:28.349Z,15.60
2023-10-29T11:45:40.434Z,15.60
2023-10-29T11:48:27.143Z,15.70
2023-10-29T11:51:17.248Z,15.60
2023-10-29T11:54:04.003Z,15.60
2023-10-29T11:56:51.082Z,15.60
2023-10-29T11:59:57.092Z,15.60
2023-10-29T12:02:44.695Z,15.70
2023-10-29T12:05:29.771Z,15.70
2023-10-29T12:08:15.230Z,15.60
2023-10-29T12:11:01.221Z,15.60
2023-10-29T12:13:46.808Z,15.50
2023-10-29T12:16:33.681Z,15.50
2023-10-29T12:19:19.206Z,15.60
2023-10-29T12:22:18.122Z,15.50
2023-10-29T12:25:03.986Z,15.50
2023-10-29T12:27:51.637Z,15.60
2023-10-29T12:30:40.962Z,15.60
2023-10-29T12:33:28.376Z,15.70
2023-10-29T12:36:15.671Z,15.60
2023-10-29T12:39:01.159Z,15.50
2023-10-29T12:41:54.068Z,15.50
2023-10-29T12:44:39.710Z,15.50
2023-10-29T12:47:25.723Z,15.40
2023-10-29T12:50:13.171Z,15.40
2023-10-29T12:53:00.056Z,15.30
2023-10-29T12:55:46.916Z,15.20
2023-10-29T12:58:32.272Z,15.10
2023-10-29T13:01:18.940Z,15.00
2023-10-29T13:04:05.047Z,14.90
2023-10-29T13:06:51.188Z,15.00
2023-10-29T13:09:40.310Z,15.00
2023-10-29T13:12:25.848Z,15.10
2023-10-29T13:15:11.044Z,15.20
2023-10-29T13:17:56.368Z,15.30
2023-10-29T13:20:42.713Z,15.40
2023-10-29T13:23:28.362Z,15.30
2023-10-29T13:26:13.782Z,15.40
2023-10-29T13:28:59.250Z,15.30
2023-10-29T13:31:46.998Z,15.20
2023-10-29T13:34:32.641Z,15.20
2023-10-29T13:37:18.647Z,15.20
2023-10-29T13:40:07.332Z,15.30
2023-10-29T13:42:52.835Z,15.30
2023-10-29T13:45:39.507Z,15.40
2023-10-29T13:48:24.947Z,15.50
2023-10-29T13:51:10.145Z,15.60
2023-10-29T13:53:55.906Z,15.40
2023-10-29T13:56:41.963Z,15.40
2023-10-29T13:59:27.325Z,15.40
2023-10-29T14:02:12.793Z,15.40
2023-10-29T14:04:59.233Z,15.50
2023-10-29T14:07:45.168Z,15.40
2023-10-29T14:10:31.081Z,15.40
2023-10-29T14:13:16.349Z,15.50
2023-10-29T14:16:02.984Z,15.50
2023-10-29T14:18:48.541Z,15.70
2023-10-29T14:21:34.798Z,15.60
2023-10-29T14:24:20.098Z,15.60
2023-10-29T14:27:05.701Z,15.70
2023-10-29T14:29:51.340Z,15.60
2023-10-29T14:32:37.333Z,15.60
2023-10-29T14:35:22.806Z,15.60
2023-10-29T14:38:09.365Z,15.60
2023-10-29T14:40:56.764Z,15.60
2023-10-29T14:43:42.280Z,15.40
2023-10-29T14:46:27.629Z,15.50
2023-10-29T14:49:13.046Z,15.40
2023-10-29T14:51:58.535Z,15.30
2023-10-29T14:54:43.960Z,15.40
2023-10-29T14:57:30.162Z,15.50
2023-10-29T15:00:16.169Z,15.40
2023-10-29T15:03:01.720Z,15.30
2023-10-29T15:05:47.052Z,15.20
2023-10-29T15:08:32.537Z,15.40
2023-10-29T15:11:33.818Z,15.30
2023-10-29T15:14:22.522Z,15.40
2023-10-29T15:17:08.017Z,15.50
2023-10-29T15:19:59.948Z,15.40
2023-10-29T15:22:45.387Z,15.30
2023-10-29T15:25:30.956Z,15.30
2023-10-29T15:28:16.399Z,15.20
2023-10-29T15:31:09.234Z,15.20
2023-10-29T15:33:55.870Z,15.30
2023-10-29T15:36:42.116Z,15.10
2023-10-29T15:39:28.781Z,15.20
2023-10-29T15:42:14.345Z,15.20
2023-10-29T15:44:59.834Z,15.20
2023-10-29T15:47:45.244Z,15.10
2023-10-29T15:50:31.732Z,15.10
2023-10-29T15:53:17.615Z,15.00
2023-10-29T15:56:08.262Z,15.20
2023-10-29T15:58:53.620Z,15.10
2023-10-29T16:01:40.148Z,15.10
2023-10-29T16:04:25.922Z,15.20
2023-10-29T16:07:11.266Z,15.20
2023-10-29T16:09:56.646Z,15.20
2023-10-29T16:12:42.044Z,15.20
2023-10-29T16:15:28.325Z,15.10
2023-10-29T16:18:13.510Z,15.10
2023-10-29T16:20:58.813Z,15.00
2023-10-29T16:23:44.221Z,15.00
2023-10-29T16:26:30.179Z,15.00
2023-10-29T16:29:16.939Z,15.00
2023-10-29T16:32:05.849Z,14.90
2023-10-29T16:34:51.292Z,15.00
2023-10-29T16:37:36.982Z,15.00
2023-10-29T16:40:22.472Z,15.10
2023-10-29T16:43:07.979Z,15.00
2023-10-29T16:45:53.317Z,15.00
2023-10-29T16:48:39.193Z,15.00
2023-10-29T16:51:25.276Z,15.00
2023-10-29T16:54:10.548Z,15.00
2023-10-29T16:56:56.710Z,15.10
2023-10-29T16:59:42.072Z,15.00
2023-10-29T17:02:27.635Z,15.00
2023-10-29T17:05:13.128Z,15.00
2023-10-29T17:07:58.641Z,15.00
2023-10-29T17:10:46.826Z,15.00
2023-10-29T17:13:32.456Z,14.90
2023-10-29T17:16:18.211Z,15.00
2023-10-29T17:19:05.252Z,15.00
2023-10-29T17:21:50.654Z,15.00
2023-10-29T17:24:37.318Z,15.00
2023-10-29T17:27:23.058Z,14.90
2023-10-29T17:30:09.572Z,15.00
2023-10-29T17:32:58.573Z,14.80
2023-10-29T17:35:44.318Z,14.80
2023-10-29T17:38:29.665Z,14.80
2023-10-29T17:41:16.144Z,14.80
2023-10-29T17:44:01.968Z,14.70
2023-10-29T17:46:47.737Z,14.80
2023-10-29T17:49:33.052Z,14.70
2023-10-29T17:52:18.521Z,14.70
2023-10-29T17:55:04.615Z,14.60
2023-10-29T17:57:50.211Z,14.50
2023-10-29T18:00:35.571Z,14.60
2023-10-29T18:03:21.220Z,14.60
2023-10-29T18:06:15.611Z,14.60
2023-10-29T18:09:01.968Z,14.60
2023-10-29T18:11:47.534Z,14.70
2023-10-29T18:14:33.135Z,14.80
2023-10-29T18:17:19.680Z,14.80
2023-10-29T18:20:05.954Z,14.80
2023-10-29T18:22:51.411Z,14.80
2023-10-29T18:25:36.950Z,14.70
2023-10-29T18:28:22.540Z,14.70
2023-10-29T18:31:09.148Z,14.60
2023-10-29T18:33:54.798Z,14.60
2023-10-29T18:36:41.036Z,14.70
2023-10-29T18:39:26.803Z,14.70
2023-10-29T18:42:12.302Z,14.60
2023-10-29T18:44:57.990Z,14.60
2023-10-29T18:47:44.189Z,14.70
2023-10-29T18:50:29.256Z,14.70
2023-10-29T18:53:14.807Z,14.70
2023-10-29T18:56:00.337Z,14.70
2023-10-29T18:58:45.915Z,14.70
2023-10-29T19:01:31.443Z,14.80
2023-10-29T19:04:16.751Z,14.70
2023-10-29T19:07:03.571Z,14.70
2023-10-29T19:09:50.627Z,14.60
2023-10-29T19:12:36.235Z,14.60
2023-10-29T19:15:22.023Z,14.50
2023-10-29T19:18:08.590Z,14.50
2023-10-29T19:20:53.745Z,14.40
2023-10-29T19:23:39.247Z,14.40
2023-10-29T19:26:25.347Z,14.40
2023-10-29T19:29:11.685Z,14.30
2023-10-29T19:31:57.741Z,14.40
2023-10-29T19:34:42.955Z,14.40
2023-10-29T19:37:28.510Z,14.50
2023-10-29T19:40:14.225Z,14.50
2023-10-29T19:42:59.445Z,14.40
2023-10-29T19:45:54.171Z,14.50
2023-10-29T19:48:39.678Z,14.50
2023-10-29T19:51:25.221Z,14.50
2023-10-29T19:54:10.678Z,14.50
2023-10-29T19:56:58.100Z,14.50
2023-10-29T19:59:43.648Z,14.60
2023-10-29T20:02:29.053Z,14.60
2023-10-29T20:05:14.760Z,14.60
2023-10-29T20:08:00.036Z,14.60
2023-10-29T20:10:45.375Z,14.60
2023-10-29T20:13:31.968Z,14.50
2023-10-29T20:16:17.299Z,14.50
2023-10-29T20:19:03.323Z,14.50
2023-10-29T20:21:48.750Z,14.50
2023-10-29T20:24:33.907Z,14.50
2023-10-29T20:27:19.609Z,14.50
2023-10-29T20:30:05.651Z,14.50
2023-10-29T20:32:51.537Z,14.50
2023-10-29T20:35:38.636Z,14.50
2023-10-29T20:38:24.812Z,14.50
2023-10-29T20:41:10.525Z,14.50
2023-10-29T20:43:56.045Z,14.50
2023-10-29T20:46:41.474Z,14.50
2023-10-29T20:49:27.067Z,14.50
2023-10-29T20:52:14.622Z,14.40
2023-10-29T20:55:00.348Z,14.40
2023-10-29T20:57:46.513Z,14.50
2023-10-29T21:00:32.564Z,14.40
2023-10-29T21:03:18.858Z,14.40
2023-10-29T21:06:04.419Z,14.40
2023-10-29T21:08:49.685Z,14.40
2023-10-29T21:11:35.462Z,14.40
2023-10-29T21:14:20.829Z,14.30
2023-10-29T21:17:06.265Z,14.30
2023-10-29T21:19:51.776Z,14.30
2023-10-29T21:22:37.522Z,14.20
2023-10-29T21:25:23.254Z,14.20
2023-10-29T21:28:08.844Z,14.20
2023-10-29T21:30:54.283Z,14.10
2023-10-29T21:33:43.622Z,14.10
2023-10-29T21:36:29.360Z,14.10
2023-10-29T21:39:14.800Z,14.10
2023-10-29T21:42:01.034Z,14.10
2023-10-29T21:44:47.515Z,14.10
2023-10-29T21:47:32.870Z,14.10
2023-10-29T21:50:18.847Z,14.10
2023-10-29T21:53:04.360Z,14.10
2023-10-29T21:55:49.898Z,14.10
2023-10-29T21:58:35.486Z,14.10
2023-10-29T22:01:23.723Z,14.20
2023-10-29T22:04:09.237Z,14.10
2023-10-29T22:06:54.482Z,14.20
2023-10-29T22:09:40.066Z,14.20
2023-10-29T22:12:26.164Z,14.20
2023-10-29T22:15:11.499Z,14.20
2023-10-29T22:17:57.264Z,14.20
2023-10-29T22:20:42.594Z,14.00
2023-10-29T22:23:28.174Z,14.00
2023-10-29T22:26:13.521Z,14.00
2023-10-29T22:28:59.124Z,14.00
2023-10-29T22:31:44.620Z,14.00
2023-10-29T22:34:29.962Z,13.90
2023-10-29T22:37:15.549Z,13.80
2023-10-29T22:40:01.007Z,13.80
2023-10-29T22:42:46.442Z,13.80
2023-10-29T22:45:32.319Z,13.80
2023-10-29T22:48:17.679Z,13.80
2023-10-29T22:51:04.139Z,13.80
2023-10-29T22:53:49.660Z,13.90
2023-10-29T22:56:35.445Z,13.90
2023-10-29T22:59:20.502Z,13.90
2023-10-29T23:02:06.010Z,13.90
2023-10-29T23:04:51.762Z,14.00
2023-10-29T23:07:37.063Z,14.00
2023-10-29T23:10:22.612Z,14.10
2023-10-29T23:13:08.041Z,14.10
2023-10-29T23:15:54.478Z,14.10
2023-10-29T23:18:39.820Z,14.00
2023-10-29T23:21:26.639Z,13.90
2023-10-29T23:24:12.069Z,13.80
2023-10-29T23:26:57.753Z,13.90
2023-10-29T23:29:42.851Z,13.90
2023-10-29T23:32:28.439Z,13.90
2023-10-29T23:35:13.843Z,13.90
2023-10-29T23:37:59.377Z,13.90
2023-10-29T23:40:45.147Z,14.00
2023-10-29T23:43:30.520Z,14.00
2023-10-29T23:46:15.982Z,14.00
2023-10-29T23:49:01.362Z,13.90
2023-10-29T23:51:46.676Z,14.00
2023-10-29T23:54:32.240Z,14.00
2023-10-29T23:57:17.924Z,13.90
